Deerfield Beach, FL

11:26 PM EDT on October 24, 2014 (GMT -0400)
Deerfield Beach | Change Station
CLOSE
Current Station
Personal Weather Station
Location: Deerfield Beach, FL
Elevation: 30 ft
Nearby Weather Stations
Active Advisory: Coastal Hazard Statement

Elev 30 ft 26.32 °N, 80.12 °W | Updated 27 seconds ago

Overcast
Overcast
76.9 °F
Feels Like 78 °F
N
4.0
Wind Variable Wind from North
Gusts 10.0 mph

Today
High -- | Low -- °F
--% Chance of Precip.
Yesterday
High -- | Low -- °F
Precip. -- in
7:24 AM 6:44 PM
New Moon, 2% visible
Pressure 29.87 in
Visibility 10.0 miles
Clouds Scattered Clouds 3000 ft
Scattered Clouds 3700 ft
Mostly Cloudy 7000 ft
Heat Index 78 °F
Dew Point 70 °F
Humidity 79%
Rainfall 0.00 in
Snow Depth Not available.
UV 0 out of 12
Pollen 2.30 out of 12
Air Quality Not available.
Flu Activity Local Activity
METAR KPMP 250253Z AUTO 03013KT 10SM SCT030 SCT037 BKN070 26/20 A2986 RMK AO2 SLP114 60000 T02610200 51009

More Conditions Fewer Conditions

Pressure 29.87 in
Visibility 10.0 miles
Clouds Scattered Clouds 3000 ft
Scattered Clouds 3700 ft
Mostly Cloudy 7000 ft
Heat Index 78 °F
Dew Point 70 °F
Humidity 79%
Rainfall 0.00 in
Snow Depth Not available.
UV 0 out of 12
Pollen 2.30 out of 12
Air Quality Not available.
Flu Activity Local Activity
METAR KPMP 250253Z AUTO 03013KT 10SM SCT030 SCT037 BKN070 26/20 A2986 RMK AO2 SLP114 60000 T02610200 51009

More Conditions Fewer Conditions

10-Day Weather Forecast

Almanac

Astronomy

Oct. 24, 2014 Rise Set
Actual Time 7:24 AM EDT 6:44 PM EDT
Civil Twilight 7:00 AM EDT 7:07 PM EDT
Nautical Twilight 6:33 AM EDT 7:34 PM EDT
Astronomical Twilight 6:06 AM EDT 8:01 PM EDT
Moon 7:59 AM EDT (10/24) 7:27 PM EDT (10/24)
Length of Visible Light 12h 06m
Length of Day
11h 19m
Tomorrow will be 1m 25s shorter.
New Moon, 2% of the Moon is Illuminated
Today
New Moon
Oct 30
First Quarter
Nov 6
Full
Nov 14
Last Quarter
Nov 22
New

Today's Extremes

State Highs State Lows

Community

WunderPhotos

Upload Photos

1,764,769 photos uploaded!

Nearby

Air Quality

  Air Quality AQ Index Pollutant
Yesterday Good
OZONE
Friday Good
OZONE
Friday Good
PM2.5
Saturday Good
OZONE
Saturday Good
PM2.5
Sunday Good
OZONE
Sunday Good
PM2.5
Monday Good
OZONE
Monday Good
PM2.5
Tuesday Good
OZONE
Tuesday Good
PM2.5
Wednesday Good
OZONE
Wednesday Good
PM2.5

Snow Depth

Station Depth Elevation
No new snow has been reported.

Earthquake Activity

City Distance Mag. Time & Date
No recent earthquake activity has been reported nearby.
Minimum magnitude displayed is 2.5.

Coastal Water Temperatures

Place Temperature
Virginia Key, FL 79.0 °F

Nearby Weather Stations